createdAt,value
2018-11-29T00:00:04.157Z,98296.73
2018-11-29T00:01:07.475Z,98301.84
2018-11-29T00:02:10.298Z,98296.75
2018-11-29T00:03:13.150Z,98300.50
2018-11-29T00:04:16.705Z,98302.40
2018-11-29T00:05:19.748Z,98301.56
2018-11-29T00:06:22.629Z,98298.61
2018-11-29T00:07:25.794Z,98299.41
2018-11-29T00:08:28.678Z,98299.41
2018-11-29T00:09:35.491Z,98304.52
2018-11-29T00:10:38.366Z,98302.65
2018-11-29T00:11:41.248Z,98299.41
2018-11-29T00:12:44.670Z,98302.65
2018-11-29T00:13:47.883Z,98309.09
2018-11-29T00:14:50.763Z,98309.11
2018-11-29T00:15:53.617Z,98308.27
2018-11-29T00:16:56.526Z,98312.58
2018-11-29T00:17:59.739Z,98311.77
2018-11-29T00:19:02.631Z,98309.61
2018-11-29T00:20:05.859Z,98308.28
2018-11-29T00:21:08.800Z,98310.44
2018-11-29T00:22:11.641Z,98312.86
2018-11-29T00:23:14.555Z,98305.05
2018-11-29T00:24:17.412Z,98309.36
2018-11-29T00:25:20.336Z,98303.97
2018-11-29T00:26:23.504Z,98300.45
2018-11-29T00:27:26.387Z,98302.85
2018-11-29T00:28:29.342Z,98296.95
2018-11-29T00:29:32.558Z,98295.88
2018-11-29T00:30:36.266Z,98298.56
2018-11-29T00:31:39.471Z,98298.80
2018-11-29T00:32:42.691Z,98291.83
2018-11-29T00:33:45.567Z,98288.58
2018-11-29T00:34:48.439Z,98284.55
2018-11-29T00:35:51.292Z,98289.66
2018-11-29T00:36:54.180Z,98298.02
2018-11-29T00:37:57.153Z,98292.90
2018-11-29T00:39:00.350Z,98288.32
2018-11-29T00:40:03.208Z,98284.00
2018-11-29T00:41:06.222Z,98281.60
2018-11-29T00:42:09.084Z,98278.91
2018-11-29T00:43:11.949Z,98277.31
2018-11-29T00:44:14.936Z,98278.91
2018-11-29T00:45:18.319Z,98274.37
2018-11-29T00:46:21.802Z,98273.02
2018-11-29T00:47:24.670Z,98264.69
2018-11-29T00:48:27.642Z,98271.14
2018-11-29T00:49:30.713Z,98267.13
2018-11-29T00:50:34.351Z,98256.11
2018-11-29T00:51:38.154Z,98261.24
2018-11-29T00:52:41.538Z,98258.03
2018-11-29T00:53:44.412Z,98262.59
2018-11-29T00:54:47.584Z,98251.83
2018-11-29T00:55:50.989Z,98244.03
2018-11-29T00:56:54.538Z,98240.30
2018-11-29T00:57:58.386Z,98250.25
2018-11-29T00:59:01.883Z,98243.26
2018-11-29T01:00:05.464Z,98250.81
2018-11-29T01:01:08.919Z,98256.47
2018-11-29T01:02:12.163Z,98262.11
2018-11-29T01:03:15.724Z,98259.97
2018-11-29T01:04:19.528Z,98256.73
2018-11-29T01:05:23.804Z,98265.88
2018-11-29T01:06:27.291Z,98267.77
2018-11-29T01:07:30.470Z,98266.13
2018-11-29T01:08:34.830Z,98272.63
2018-11-29T01:09:38.070Z,98274.50
2018-11-29T01:10:41.862Z,98279.86
2018-11-29T01:11:46.327Z,98282.55
2018-11-29T01:12:49.972Z,98284.70
2018-11-29T01:13:53.516Z,98287.69
2018-11-29T01:14:56.674Z,98298.72
2018-11-29T01:15:59.799Z,98291.72
2018-11-29T01:17:02.804Z,98284.19
2018-11-29T01:18:05.789Z,98279.88
2018-11-29T01:19:08.921Z,98278.27
2018-11-29T01:20:12.399Z,98272.09
2018-11-29T01:21:15.619Z,98267.79
2018-11-29T01:22:21.973Z,98270.20
2018-11-29T01:23:25.490Z,98272.91
2018-11-29T01:24:28.952Z,98270.22
2018-11-29T01:25:32.070Z,98285.02
2018-11-29T01:26:36.563Z,98287.42
2018-11-29T01:27:40.010Z,98293.89
2018-11-29T01:28:43.139Z,98299.80
2018-11-29T01:29:46.311Z,98296.31
2018-11-29T01:30:49.326Z,98302.20
2018-11-29T01:31:52.820Z,98300.34
2018-11-29T01:32:56.394Z,98300.06
2018-11-29T01:33:59.717Z,98294.97
2018-11-29T01:35:03.291Z,98298.45
2018-11-29T01:36:07.149Z,98294.69
2018-11-29T01:37:10.519Z,98291.21
2018-11-29T01:38:13.959Z,98287.70
2018-11-29T01:39:17.396Z,98280.46
2018-11-29T01:40:22.697Z,98269.68
2018-11-29T01:41:26.864Z,98265.12
2018-11-29T01:42:30.663Z,98259.47
2018-11-29T01:43:33.539Z,98254.37
2018-11-29T01:44:37.284Z,98257.58
2018-11-29T01:45:40.236Z,98256.50
2018-11-29T01:46:43.475Z,98265.67
2018-11-29T01:47:47.128Z,98275.32
2018-11-29T01:48:50.378Z,98273.73
2018-11-29T01:49:53.201Z,98272.38
2018-11-29T01:50:56.019Z,98272.92
2018-11-29T01:51:59.303Z,98278.56
2018-11-29T01:53:02.317Z,98267.27
2018-11-29T01:54:05.846Z,98273.47
2018-11-29T01:55:09.613Z,98269.17
2018-11-29T01:56:12.949Z,98278.56
2018-11-29T01:57:16.305Z,98277.22
2018-11-29T01:58:19.686Z,98275.89
2018-11-29T01:59:22.510Z,98282.06
2018-11-29T02:00:25.767Z,98274.55
2018-11-29T02:01:29.269Z,98276.95
2018-11-29T02:02:32.700Z,98272.13
2018-11-29T02:03:35.887Z,98285.83
2018-11-29T02:04:39.253Z,98282.91
2018-11-29T02:05:42.731Z,98278.59
2018-11-29T02:06:46.367Z,98288.79
2018-11-29T02:07:49.978Z,98284.48
2018-11-29T02:08:53.004Z,98278.03
2018-11-29T02:10:01.040Z,98277.75
2018-11-29T02:11:04.327Z,98270.23
2018-11-29T02:12:07.791Z,98282.06
2018-11-29T02:13:10.966Z,98278.02
2018-11-29T02:14:14.130Z,98275.60
2018-11-29T02:15:17.001Z,98272.13
2018-11-29T02:16:20.102Z,98274.00
2018-11-29T02:17:23.230Z,98282.06
2018-11-29T02:18:26.230Z,98267.27
2018-11-29T02:19:29.544Z,98268.34
2018-11-29T02:20:33.228Z,98268.88
2018-11-29T02:21:36.145Z,98277.77
2018-11-29T02:22:39.975Z,98270.50
2018-11-29T02:23:43.171Z,98276.95
2018-11-29T02:24:46.095Z,98273.47
2018-11-29T02:25:49.177Z,98275.34
2018-11-29T02:26:52.530Z,98274.81
2018-11-29T02:27:55.482Z,98273.47
2018-11-29T02:28:59.012Z,98268.34
2018-11-29T02:30:02.054Z,98273.47
2018-11-29T02:31:05.232Z,98261.62
2018-11-29T02:32:08.082Z,98265.92
2018-11-29T02:33:11.550Z,98260.82
2018-11-29T02:34:14.682Z,98261.09
2018-11-29T02:35:18.062Z,98269.69
2018-11-29T02:36:21.310Z,98258.69
2018-11-29T02:37:24.254Z,98262.44
2018-11-29T02:38:27.271Z,98253.31
2018-11-29T02:39:31.132Z,98256.52
2018-11-29T02:40:34.073Z,98247.94
2018-11-29T02:41:37.069Z,98243.08
2018-11-29T02:42:40.079Z,98250.07
2018-11-29T02:43:43.215Z,98247.37
2018-11-29T02:44:46.247Z,98236.89
2018-11-29T02:45:49.875Z,98243.90
2018-11-29T02:46:53.137Z,98243.62
2018-11-29T02:47:56.520Z,98244.42
2018-11-29T02:48:59.470Z,98250.34
2018-11-29T02:50:03.027Z,98246.03
2018-11-29T02:51:06.463Z,98254.09
2018-11-29T02:52:10.330Z,98252.47
2018-11-29T02:53:13.930Z,98247.36
2018-11-29T02:54:17.834Z,98241.98
2018-11-29T02:55:21.079Z,98240.36
2018-11-29T02:56:24.523Z,98238.49
2018-11-29T02:57:28.185Z,98234.73
2018-11-29T02:58:32.072Z,98241.19
2018-11-29T02:59:35.476Z,98237.94
2018-11-29T03:00:39.355Z,98240.64
2018-11-29T03:01:42.974Z,98241.70
2018-11-29T03:02:46.492Z,98233.11
2018-11-29T03:03:50.536Z,98239.02
2018-11-29T03:04:55.614Z,98235.27
2018-11-29T03:05:59.628Z,98244.13
2018-11-29T03:07:03.558Z,98242.27
2018-11-29T03:08:07.070Z,98238.50
2018-11-29T03:09:10.867Z,98234.98
2018-11-29T03:10:14.245Z,98235.81
2018-11-29T03:11:18.333Z,98235.00
2018-11-29T03:12:21.825Z,98234.98
2018-11-29T03:13:25.492Z,98235.81
2018-11-29T03:14:29.021Z,98232.83
2018-11-29T03:15:32.105Z,98230.95
2018-11-29T03:16:35.757Z,98229.60
2018-11-29T03:17:41.229Z,98231.23
2018-11-29T03:18:46.912Z,98230.70
2018-11-29T03:19:50.614Z,98240.11
2018-11-29T03:20:54.050Z,98237.67
2018-11-29T03:21:57.600Z,98236.34
2018-11-29T03:23:02.172Z,98237.43
2018-11-29T03:24:06.087Z,98234.73
2018-11-29T03:25:09.919Z,98228.02
2018-11-29T03:26:13.369Z,98222.89
2018-11-29T03:27:18.207Z,98235.27
2018-11-29T03:28:21.620Z,98238.24
2018-11-29T03:29:24.903Z,98232.04
2018-11-29T03:30:28.377Z,98231.23
2018-11-29T03:31:31.570Z,98233.92
2018-11-29T03:32:34.790Z,98232.85
2018-11-29T03:33:38.019Z,98236.89
2018-11-29T03:34:42.805Z,98241.72
2018-11-29T03:35:46.141Z,98234.73
2018-11-29T03:36:50.183Z,98249.53
2018-11-29T03:37:53.951Z,98239.84
2018-11-29T03:38:58.039Z,98245.23
2018-11-29T03:40:01.803Z,98242.78
2018-11-29T03:41:04.722Z,98246.31
2018-11-29T03:42:07.578Z,98235.00
2018-11-29T03:43:11.629Z,98236.34
2018-11-29T03:44:14.491Z,98238.24
2018-11-29T03:45:17.561Z,98239.59
2018-11-29T03:46:20.414Z,98246.83
2018-11-29T03:47:23.540Z,98237.70
2018-11-29T03:48:26.419Z,98247.66
2018-11-29T03:49:29.656Z,98244.69
2018-11-29T03:50:33.765Z,98242.55
2018-11-29T03:51:36.700Z,98240.67
2018-11-29T03:52:39.644Z,98239.33
2018-11-29T03:53:42.524Z,98236.64
2018-11-29T03:54:45.502Z,98241.22
2018-11-29T03:55:48.743Z,98237.19
2018-11-29T03:56:51.619Z,98245.25
2018-11-29T03:57:54.572Z,98247.66
2018-11-29T03:58:57.507Z,98240.39
2018-11-29T04:00:01.369Z,98244.43
2018-11-29T04:01:04.899Z,98240.39
2018-11-29T04:02:08.451Z,98244.98
2018-11-29T04:03:11.347Z,98246.33
2018-11-29T04:04:14.306Z,98236.09
2018-11-29T04:05:17.280Z,98240.41
2018-11-29T04:06:20.296Z,98236.36
2018-11-29T04:07:23.145Z,98242.58
2018-11-29T04:08:26.515Z,98232.89
2018-11-29T04:09:29.362Z,98231.00
2018-11-29T04:10:32.240Z,98231.00
2018-11-29T04:11:35.263Z,98229.66
2018-11-29T04:12:38.208Z,98225.36
2018-11-29T04:13:41.078Z,98225.35
2018-11-29T04:14:44.384Z,98231.56
2018-11-29T04:15:47.362Z,98226.98
2018-11-29T04:16:50.462Z,98232.08
2018-11-29T04:17:53.399Z,98231.56
2018-11-29T04:18:56.289Z,98232.91
2018-11-29T04:19:59.160Z,98230.45
2018-11-29T04:21:02.026Z,98233.42
2018-11-29T04:22:04.876Z,98225.63
2018-11-29T04:23:07.739Z,98232.91
2018-11-29T04:24:10.576Z,98229.11
2018-11-29T04:25:13.531Z,98227.25
2018-11-29T04:26:16.415Z,98230.48
2018-11-29T04:27:19.295Z,98221.86
2018-11-29T04:28:22.439Z,98230.20
2018-11-29T04:29:25.322Z,98222.66
2018-11-29T04:30:28.236Z,98221.86
2018-11-29T04:31:31.139Z,98216.48
2018-11-29T04:32:34.582Z,98219.72
2018-11-29T04:33:39.998Z,98219.16
2018-11-29T04:34:42.883Z,98219.70
2018-11-29T04:35:45.928Z,98203.58
2018-11-29T04:36:48.906Z,98203.83
2018-11-29T04:37:52.309Z,98212.44
2018-11-29T04:38:55.196Z,98206.80
2018-11-29T04:39:58.092Z,98208.69
2018-11-29T04:41:00.967Z,98210.55
2018-11-29T04:42:04.970Z,98215.13
2018-11-29T04:43:07.832Z,98215.41
2018-11-29T04:44:11.234Z,98214.85
2018-11-29T04:45:14.152Z,98212.45
2018-11-29T04:46:17.113Z,98213.78
2018-11-29T04:47:19.955Z,98206.52
2018-11-29T04:48:22.928Z,98207.86
2018-11-29T04:49:25.857Z,98215.41
2018-11-29T04:50:29.107Z,98222.92
2018-11-29T04:51:32.147Z,98218.08
2018-11-29T04:52:35.110Z,98208.12
2018-11-29T04:53:37.966Z,98216.73
2018-11-29T04:54:40.968Z,98203.30
2018-11-29T04:55:44.023Z,98212.98
2018-11-29T04:56:47.288Z,98217.52
2018-11-29T04:57:50.175Z,98218.06
2018-11-29T04:58:53.041Z,98218.61
2018-11-29T04:59:55.897Z,98217.26
2018-11-29T05:00:58.745Z,98222.89
2018-11-29T05:02:01.671Z,98214.03
2018-11-29T05:03:06.045Z,98200.57
2018-11-29T05:04:09.451Z,98199.50
2018-11-29T05:05:12.520Z,98192.22
2018-11-29T05:06:15.532Z,98192.49
2018-11-29T05:07:18.528Z,98183.36
2018-11-29T05:08:21.868Z,98190.89
2018-11-29T05:09:24.736Z,98184.70
2018-11-29T05:10:27.682Z,98189.26
2018-11-29T05:11:30.539Z,98186.05
2018-11-29T05:12:36.825Z,98184.70
2018-11-29T05:13:39.799Z,98182.02
2018-11-29T05:14:43.076Z,98183.36
2018-11-29T05:15:45.950Z,98182.28
2018-11-29T05:16:48.888Z,98181.17
2018-11-29T05:17:51.840Z,98182.00
2018-11-29T05:18:54.787Z,98184.68
2018-11-29T05:19:57.660Z,98177.67
2018-11-29T05:21:00.912Z,98175.79
2018-11-29T05:22:03.800Z,98176.88
2018-11-29T05:23:07.931Z,98177.13
2018-11-29T05:24:11.522Z,98179.30
2018-11-29T05:25:14.388Z,98180.36
2018-11-29T05:26:17.355Z,98179.81
2018-11-29T05:27:20.737Z,98180.64
2018-11-29T05:28:23.667Z,98178.47
2018-11-29T05:29:27.452Z,98179.27
2018-11-29T05:30:30.458Z,98184.08
2018-11-29T05:31:33.452Z,98189.73
2018-11-29T05:32:36.346Z,98184.64
2018-11-29T05:33:39.679Z,98188.68
2018-11-29T05:34:42.669Z,98191.89
2018-11-29T05:35:45.589Z,98192.14
2018-11-29T05:36:49.084Z,98180.05
2018-11-29T05:37:51.989Z,98180.06
2018-11-29T05:38:55.341Z,98193.01
2018-11-29T05:39:58.601Z,98179.33
2018-11-29T05:41:01.690Z,98180.95
2018-11-29T05:42:04.627Z,98180.12
2018-11-29T05:43:07.537Z,98177.98
2018-11-29T05:44:10.541Z,98163.72
2018-11-29T05:45:14.078Z,98176.11
2018-11-29T05:46:17.392Z,98172.06
2018-11-29T05:47:20.324Z,98171.52
2018-11-29T05:48:23.848Z,98159.18
2018-11-29T05:49:26.815Z,98167.77
2018-11-29T05:50:30.293Z,98171.80
2018-11-29T05:51:33.212Z,98169.11
2018-11-29T05:52:36.471Z,98168.05
2018-11-29T05:53:39.342Z,98178.03
2018-11-29T05:54:42.266Z,98161.61
2018-11-29T05:55:45.157Z,98156.52
2018-11-29T05:56:47.997Z,98163.48
2018-11-29T05:57:51.343Z,98167.27
2018-11-29T05:58:54.610Z,98164.81
2018-11-29T05:59:58.906Z,98165.66
2018-11-29T06:01:04.761Z,98175.34
2018-11-29T06:02:08.431Z,98173.16
2018-11-29T06:03:11.327Z,98174.50
2018-11-29T06:04:14.194Z,98171.53
2018-11-29T06:05:17.582Z,98184.45
2018-11-29T06:06:20.444Z,98191.94
2018-11-29T06:07:23.290Z,98180.67
2018-11-29T06:08:26.186Z,98167.51
2018-11-29T06:09:29.606Z,98183.89
2018-11-29T06:10:34.682Z,98170.73
2018-11-29T06:11:38.803Z,98171.80
2018-11-29T06:12:41.722Z,98179.87
2018-11-29T06:13:45.474Z,98180.95
2018-11-29T06:14:48.528Z,98180.41
2018-11-29T06:15:52.323Z,98187.41
2018-11-29T06:16:55.248Z,98184.17
2018-11-29T06:17:58.563Z,98188.20
2018-11-29T06:19:01.477Z,98184.16
2018-11-29T06:20:05.298Z,98188.45
2018-11-29T06:21:08.157Z,98186.56
2018-11-29T06:22:11.306Z,98184.70
2018-11-29T06:23:15.010Z,98187.38
2018-11-29T06:24:18.467Z,98179.58
2018-11-29T06:25:21.724Z,98176.64
2018-11-29T06:26:24.648Z,98174.75
2018-11-29T06:27:27.513Z,98164.80
2018-11-29T06:28:30.531Z,98171.02
2018-11-29T06:29:33.443Z,98165.63
2018-11-29T06:43:55.514Z,98183.36
2018-11-29T06:44:58.378Z,98185.48
2018-11-29T06:46:01.432Z,98171.52
2018-11-29T06:47:04.308Z,98180.41
2018-11-29T06:48:07.167Z,98170.20
2018-11-29T06:49:10.526Z,98174.21
2018-11-29T06:50:13.445Z,98168.58
2018-11-29T06:51:16.401Z,98181.20
2018-11-29T06:52:19.849Z,98179.05
2018-11-29T06:53:27.611Z,98167.22
2018-11-29T06:54:30.803Z,98169.10
2018-11-29T06:55:37.713Z,98172.34
2018-11-29T06:56:40.691Z,98169.38
2018-11-29T06:57:43.578Z,98172.63
2018-11-29T06:58:46.656Z,98166.16
2018-11-29T06:59:49.722Z,98158.08
2018-11-29T07:00:52.611Z,98165.91
2018-11-29T07:01:56.008Z,98158.08
2018-11-29T07:02:59.387Z,98152.70
2018-11-29T07:04:02.286Z,98154.33
2018-11-29T07:05:05.148Z,98158.91
2018-11-29T07:06:08.076Z,98158.92
2018-11-29T07:07:11.474Z,98163.47
2018-11-29T07:08:14.720Z,98164.55
2018-11-29T07:09:17.997Z,98153.27
2018-11-29T07:10:25.687Z,98155.67
2018-11-29T07:11:28.582Z,98150.02
2018-11-29T07:12:32.684Z,98150.59
2018-11-29T07:13:35.797Z,98156.50
2018-11-29T07:14:39.918Z,98152.48
2018-11-29T07:15:42.769Z,98146.83
2018-11-29T07:16:47.668Z,98136.58
2018-11-29T07:17:50.554Z,98139.02
2018-11-29T07:18:53.420Z,98154.61
2018-11-29T07:19:56.309Z,98148.95
2018-11-29T07:20:59.611Z,98154.88
2018-11-29T07:22:02.538Z,98155.40
2018-11-29T07:23:05.424Z,98152.20
2018-11-29T07:24:08.359Z,98147.11
2018-11-29T07:25:12.187Z,98143.31
2018-11-29T07:26:16.148Z,98147.63
2018-11-29T07:27:21.520Z,98147.37
2018-11-29T07:28:25.869Z,98144.67
2018-11-29T07:29:30.837Z,98152.22
2018-11-29T07:30:33.687Z,98164.86
2018-11-29T07:31:36.537Z,98152.50
2018-11-29T07:32:39.444Z,98164.86
2018-11-29T07:33:44.949Z,98161.12
2018-11-29T07:34:47.806Z,98155.48
2018-11-29T07:35:50.659Z,98138.30
2018-11-29T07:36:53.597Z,98156.55
2018-11-29T07:37:56.469Z,98156.31
2018-11-29T07:38:59.339Z,98159.23
2018-11-29T07:40:02.619Z,98147.41
2018-11-29T07:41:05.506Z,98147.41
2018-11-29T07:42:09.147Z,98147.95
2018-11-29T07:43:12.028Z,98147.95
2018-11-29T07:44:14.940Z,98149.57
2018-11-29T07:45:17.847Z,98149.30
2018-11-29T07:46:21.066Z,98142.58
2018-11-29T07:47:23.927Z,98141.75
2018-11-29T07:48:26.812Z,98141.75
2018-11-29T07:49:29.700Z,98141.75
2018-11-29T07:50:32.582Z,98143.10
2018-11-29T07:51:35.451Z,98143.63
2018-11-29T07:52:39.710Z,98139.87
2018-11-29T07:53:42.864Z,98142.00
2018-11-29T07:54:47.059Z,98143.36
2018-11-29T07:55:51.967Z,98137.19
2018-11-29T07:56:57.138Z,98149.53
2018-11-29T07:58:00.108Z,98133.94
2018-11-29T07:59:03.324Z,98135.83
2018-11-29T08:00:06.229Z,98136.63
2018-11-29T08:01:09.118Z,98139.31
2018-11-29T08:02:12.016Z,98138.25
2018-11-29T08:03:14.893Z,98138.80
2018-11-29T08:04:17.841Z,98135.82
2018-11-29T08:05:21.199Z,98127.47
2018-11-29T08:06:24.134Z,98117.78
2018-11-29T08:07:27.045Z,98111.89
2018-11-29T08:08:29.939Z,98117.26
2018-11-29T08:09:32.927Z,98112.95
2018-11-29T08:10:36.651Z,98123.98
2018-11-29T08:11:39.837Z,98114.28
2018-11-29T08:12:43.326Z,98117.78
2018-11-29T08:13:46.956Z,98120.75
2018-11-29T08:14:49.983Z,98109.71
2018-11-29T08:15:52.901Z,98118.31
2018-11-29T08:16:55.786Z,98120.70
2018-11-29T08:17:58.645Z,98117.52
2018-11-29T08:19:02.541Z,98110.23
2018-11-29T08:20:05.475Z,98115.90
2018-11-29T08:21:09.715Z,98105.66
2018-11-29T08:22:15.708Z,98120.45
2018-11-29T08:23:19.663Z,98107.28
2018-11-29T08:24:22.633Z,98112.15
2018-11-29T08:25:25.484Z,98116.41
2018-11-29T08:26:28.390Z,98116.66
2018-11-29T08:27:31.328Z,98114.52
2018-11-29T08:28:34.252Z,98116.14
2018-11-29T08:29:37.639Z,98106.99
2018-11-29T08:30:41.575Z,98106.74
2018-11-29T08:31:44.468Z,98108.06
2018-11-29T08:32:47.320Z,98102.95
2018-11-29T08:33:51.864Z,98109.40
2018-11-29T08:34:55.092Z,98105.11
2018-11-29T08:35:58.476Z,98113.44
2018-11-29T08:37:01.332Z,98103.45
2018-11-29T08:38:06.514Z,98106.69
2018-11-29T08:39:09.369Z,98114.19
2018-11-29T08:40:13.277Z,98120.38
2018-11-29T08:41:16.811Z,98110.95
2018-11-29T08:42:20.726Z,98118.48
2018-11-29T08:43:23.872Z,98115.55
2018-11-29T08:44:28.418Z,98121.22
2018-11-29T08:45:32.156Z,98112.11
2018-11-29T08:46:38.408Z,98119.63
2018-11-29T08:47:41.315Z,98120.16
2018-11-29T08:48:45.607Z,98104.84
2018-11-29T08:49:48.475Z,98106.98
2018-11-29T08:50:52.198Z,98113.19
2018-11-29T08:51:55.805Z,98104.02
2018-11-29T08:52:59.073Z,98106.41
2018-11-29T08:54:02.173Z,98096.97
2018-11-29T08:55:07.512Z,98108.79
2018-11-29T08:56:10.400Z,98109.31
2018-11-29T08:57:14.114Z,98109.02
2018-11-29T08:58:17.018Z,98114.09
2018-11-29T08:59:20.271Z,98107.38
2018-11-29T09:00:23.793Z,98106.84
2018-11-29T09:01:28.515Z,98106.82
2018-11-29T09:02:31.388Z,98105.20
2018-11-29T09:03:34.304Z,98097.94
2018-11-29T09:04:37.167Z,98096.36
2018-11-29T09:05:40.106Z,98094.44
2018-11-29T09:06:44.764Z,98092.00
2018-11-29T09:07:48.693Z,98094.13
2018-11-29T09:08:51.820Z,98088.50
2018-11-29T09:09:54.763Z,98093.31
2018-11-29T09:10:57.634Z,98095.98
2018-11-29T09:12:00.568Z,98097.02
2018-11-29T09:13:03.580Z,98099.19
2018-11-29T09:14:06.566Z,98102.94
2018-11-29T09:15:09.449Z,98102.34
2018-11-29T09:16:12.409Z,98111.24
2018-11-29T09:17:15.412Z,98106.94
2018-11-29T09:18:18.342Z,98107.24
2018-11-29T09:19:21.555Z,98109.34
2018-11-29T09:20:24.417Z,98100.44
2018-11-29T09:21:27.343Z,98103.67
2018-11-29T09:22:30.227Z,98108.52
2018-11-29T09:23:33.673Z,98100.93
2018-11-29T09:24:36.608Z,98102.30
2018-11-29T09:25:40.007Z,98101.50
2018-11-29T09:26:42.892Z,98101.20
2018-11-29T09:27:45.748Z,98103.90
2018-11-29T09:28:48.627Z,98099.36
2018-11-29T09:29:56.393Z,98093.66
2018-11-29T09:31:00.467Z,98096.67
2018-11-29T09:32:03.703Z,98112.84
2018-11-29T09:33:07.523Z,98106.59
2018-11-29T09:34:10.449Z,98112.27
2018-11-29T09:35:13.347Z,98103.94
2018-11-29T09:36:16.295Z,98107.19
2018-11-29T09:37:20.431Z,98113.64
2018-11-29T09:38:24.539Z,98115.83
2018-11-29T09:39:28.160Z,98123.34
2018-11-29T09:40:31.263Z,98116.55
2018-11-29T09:41:36.005Z,98130.80
2018-11-29T09:42:40.449Z,98116.57
2018-11-29T09:43:44.778Z,98120.05
2018-11-29T09:44:48.017Z,98112.48
2018-11-29T09:45:50.986Z,98118.45
2018-11-29T09:46:54.663Z,98104.19
2018-11-29T09:47:57.837Z,98111.16
2018-11-29T09:49:01.246Z,98110.37
2018-11-29T09:50:04.153Z,98110.65
2018-11-29T09:51:08.454Z,98111.45
2018-11-29T09:52:11.328Z,98107.17
2018-11-29T09:53:14.200Z,98109.02
2018-11-29T09:54:17.079Z,98120.88
2018-11-29T09:55:20.949Z,98120.30
2018-11-29T09:56:23.860Z,98121.36
2018-11-29T09:57:27.527Z,98118.91
2018-11-29T09:58:30.391Z,98118.37
2018-11-29T09:59:34.446Z,98118.39
2018-11-29T10:00:39.579Z,98115.95
2018-11-29T10:01:42.456Z,98126.72
2018-11-29T10:02:45.418Z,98119.22
2018-11-29T10:03:48.931Z,98121.38
2018-11-29T10:04:51.839Z,98120.30
2018-11-29T10:05:55.283Z,98119.22
2018-11-29T10:06:58.781Z,98107.11
2018-11-29T10:08:01.649Z,98103.86
2018-11-29T10:09:05.920Z,98110.61
2018-11-29T10:10:08.832Z,98112.48
2018-11-29T10:11:11.708Z,98125.17
2018-11-29T10:12:14.591Z,98117.93
2018-11-29T10:13:19.151Z,98118.22
2018-11-29T10:14:24.110Z,98118.74
2018-11-29T10:15:27.013Z,98118.50
2018-11-29T10:16:29.873Z,98111.28
2018-11-29T10:17:32.823Z,98110.99
2018-11-29T10:18:35.752Z,98112.08
2018-11-29T10:19:38.790Z,98101.86
2018-11-29T10:20:42.131Z,98110.37
2018-11-29T10:21:46.388Z,98123.30
2018-11-29T10:22:50.487Z,98091.80
2018-11-29T10:23:54.429Z,98119.02
2018-11-29T10:25:01.506Z,98110.63
2018-11-29T10:26:04.729Z,98119.22
2018-11-29T10:27:10.626Z,98100.93
2018-11-29T10:28:13.535Z,98109.55
2018-11-29T10:29:16.732Z,98102.28
2018-11-29T10:30:19.682Z,98096.88
2018-11-29T10:31:23.716Z,98117.04
2018-11-29T10:32:27.739Z,98091.70
2018-11-29T10:33:32.484Z,98104.57
2018-11-29T10:34:35.445Z,98098.92
2018-11-29T10:35:40.019Z,98101.88
2018-11-29T10:36:43.115Z,98081.16
2018-11-29T10:37:46.291Z,98089.77
2018-11-29T10:38:49.664Z,98088.39
2018-11-29T10:39:52.742Z,98094.00
2018-11-29T10:40:55.659Z,98082.67
2018-11-29T10:42:01.488Z,98080.80
2018-11-29T10:43:04.442Z,98088.64
2018-11-29T10:44:07.325Z,98084.62
2018-11-29T10:45:11.580Z,98085.95
2018-11-29T10:46:15.823Z,98087.29
2018-11-29T10:47:17.900Z,98081.34
2018-11-29T10:48:20.773Z,98083.77
2018-11-29T10:49:23.845Z,98068.73
2018-11-29T10:50:26.728Z,98065.72
2018-11-29T10:51:30.047Z,98067.60
2018-11-29T10:52:33.005Z,98060.58
2018-11-29T10:53:37.129Z,98055.48
2018-11-29T10:54:39.672Z,98059.73
2018-11-29T10:55:43.238Z,98056.48
2018-11-29T10:56:46.397Z,98041.97
2018-11-29T10:57:50.949Z,98050.28
2018-11-29T10:58:53.896Z,98060.23
2018-11-29T10:59:58.459Z,98048.67
2018-11-29T11:01:05.127Z,98051.34
2018-11-29T11:02:14.049Z,98040.01
2018-11-29T11:03:19.420Z,98043.23
2018-11-29T11:04:22.717Z,98034.30
2018-11-29T11:05:25.634Z,98037.84
2018-11-29T11:06:28.539Z,98040.48
2018-11-29T11:07:31.450Z,98031.58
2018-11-29T11:08:34.359Z,98034.51
2018-11-29T11:09:37.257Z,98034.75
2018-11-29T11:10:40.505Z,98031.50
2018-11-29T11:11:45.018Z,98029.86
2018-11-29T11:12:47.890Z,98022.56
2018-11-29T11:13:51.327Z,98031.99
2018-11-29T11:14:54.183Z,98033.63
2018-11-29T11:15:57.258Z,98033.05
2018-11-29T11:17:00.391Z,98025.23
2018-11-29T11:18:03.591Z,98027.40
2018-11-29T11:19:06.528Z,98027.92
2018-11-29T11:20:09.824Z,98019.28
2018-11-29T11:21:12.817Z,98023.33
2018-11-29T11:22:16.404Z,98022.21
2018-11-29T11:23:20.749Z,98023.33
2018-11-29T11:24:23.919Z,98026.05
2018-11-29T11:25:26.970Z,98021.69
2018-11-29T11:26:30.389Z,98018.38
2018-11-29T11:27:33.659Z,98020.25
2018-11-29T11:28:38.644Z,98013.51
2018-11-29T11:42:55.930Z,98003.66
2018-11-29T11:43:58.894Z,97989.02
2018-11-29T11:45:01.806Z,97992.02
2018-11-29T11:46:06.314Z,97995.34
2018-11-29T11:47:10.067Z,97993.13
2018-11-29T11:48:14.405Z,97997.14
2018-11-29T11:49:17.345Z,97987.25
2018-11-29T11:50:20.432Z,97980.84
2018-11-29T11:51:23.701Z,97987.58
2018-11-29T11:52:26.638Z,97980.52
2018-11-29T11:53:30.502Z,97981.04
2018-11-29T11:54:33.849Z,97988.59
2018-11-29T11:55:37.558Z,97982.69
2018-11-29T11:56:40.429Z,97970.66
2018-11-29T11:57:44.261Z,97988.44
2018-11-29T11:58:47.237Z,97983.27
2018-11-29T11:59:50.191Z,97977.85
2018-11-29T12:00:53.204Z,97974.33
2018-11-29T12:01:56.353Z,97978.34
2018-11-29T12:02:59.685Z,97979.16
2018-11-29T12:04:04.685Z,97961.16
2018-11-29T12:05:07.592Z,97962.23
2018-11-29T12:06:11.783Z,97966.55
2018-11-29T12:07:15.330Z,97957.60
2018-11-29T12:08:18.703Z,97958.75
2018-11-29T12:09:23.260Z,97956.29
2018-11-29T12:10:28.440Z,97953.36
2018-11-29T12:11:31.412Z,97961.64
2018-11-29T12:12:35.071Z,97949.32
2018-11-29T12:13:38.000Z,97947.41
2018-11-29T12:14:40.898Z,97944.03
2018-11-29T12:15:43.944Z,97944.27
2018-11-29T12:16:46.877Z,97962.38
2018-11-29T12:17:49.792Z,97936.70
2018-11-29T12:18:53.149Z,97932.30
2018-11-29T12:19:56.030Z,97936.56
2018-11-29T12:20:58.889Z,97933.34
2018-11-29T12:22:01.799Z,97933.64
2018-11-29T12:23:05.301Z,97932.07
2018-11-29T12:24:08.165Z,97932.10
2018-11-29T12:25:11.050Z,97931.34
2018-11-29T12:26:15.097Z,97935.09
2018-11-29T12:27:17.967Z,97940.94
2018-11-29T12:28:20.875Z,97933.19
2018-11-29T12:29:23.773Z,97930.45
2018-11-29T12:30:27.207Z,97923.39
2018-11-29T12:31:31.667Z,97931.21
2018-11-29T12:32:34.724Z,97925.59
2018-11-29T12:33:37.721Z,97939.59
2018-11-29T12:34:40.692Z,97933.94
2018-11-29T12:35:44.340Z,97933.80
2018-11-29T12:36:48.411Z,97918.97
2018-11-29T12:37:53.319Z,97917.09
2018-11-29T12:38:59.980Z,97911.48
2018-11-29T12:40:02.913Z,97907.48
2018-11-29T12:41:05.961Z,97885.91
2018-11-29T12:42:09.273Z,97908.83
2018-11-29T12:43:13.333Z,97909.12
2018-11-29T12:44:22.021Z,97893.41
2018-11-29T12:45:26.351Z,97894.71
2018-11-29T12:46:29.372Z,97897.89
2018-11-29T12:47:32.241Z,97886.02
2018-11-29T12:48:35.730Z,97873.59
2018-11-29T12:49:38.602Z,97880.07
2018-11-29T12:50:41.500Z,97874.94